Time;durP1;ratioP1;P1;durP2;ratioP2;P2;SDS_P1;SDS_P2;PMS_P1;PMS_P2;Temp;Humidity;BMP_temperature;BMP_pressure;BME280_temperature;BME280_humidity;BME280_pressure;Samples;Min_cycle;Max_cycle;Signal;HPM_P1;HPM_P2
2024/02/27 00:00:11;;;;;;;2.20;2.10;;;;;;;19.24;49.28;96482.19;5033474;28;20221;-25
2024/02/27 00:02:38;;;;;;;2.23;2.13;;;;;;;19.22;49.19;96482.16;5027394;28;20225;-27
2024/02/27 00:05:05;;;;;;;2.53;2.33;;;;;;;19.22;49.35;96481.31;5033770;28;20229;-25
2024/02/27 00:07:31;;;;;;;2.37;2.17;;;;;;;19.19;49.54;96487.19;5024304;28;20201;-25
2024/02/27 00:09:58;;;;;;;2.30;2.10;;;;;;;19.19;49.14;96489.75;5033456;28;20218;-27
2024/02/27 00:12:25;;;;;;;2.50;2.30;;;;;;;19.18;49.51;96502.44;5034158;28;20252;-25
2024/02/27 00:14:53;;;;;;;2.60;2.40;;;;;;;19.16;49.60;96504.13;5034153;28;20281;-29
2024/02/27 00:17:22;;;;;;;2.40;2.20;;;;;;;19.15;49.57;96499.81;5033328;28;20204;-25
2024/02/27 00:19:49;;;;;;;2.40;2.20;;;;;;;19.12;49.63;96502.31;5030161;28;20732;-25
2024/02/27 00:22:16;;;;;;;2.50;2.30;;;;;;;19.12;49.36;96497.22;5030433;28;20201;-28
2024/02/27 00:24:43;;;;;;;2.73;2.43;;;;;;;19.04;49.48;96469.03;5033690;28;20689;-25
2024/02/27 00:27:09;;;;;;;2.53;2.33;;;;;;;19.10;49.63;96486.16;5031620;28;20197;-25
2024/02/27 00:29:36;;;;;;;2.53;2.33;;;;;;;19.10;49.65;96486.16;5029561;28;20223;-25
2024/02/27 00:32:03;;;;;;;2.60;2.40;;;;;;;19.09;49.56;96495.47;5026310;28;20251;-25
2024/02/27 00:34:29;;;;;;;2.87;2.67;;;;;;;19.07;49.49;96498.81;5022757;28;20296;-29
2024/02/27 00:36:56;;;;;;;2.57;2.37;;;;;;;19.07;49.69;96496.25;5024365;28;20202;-25
2024/02/27 00:39:23;;;;;;;3.23;2.20;;;;;;;19.05;49.74;96496.22;5033265;28;20578;-25
2024/02/27 00:41:50;;;;;;;2.63;2.43;;;;;;;19.05;50.06;96497.91;5032876;28;20217;-25
2024/02/27 00:44:16;;;;;;;2.50;2.30;;;;;;;19.05;49.86;96506.41;5023103;28;20285;-25
2024/02/27 00:46:43;;;;;;;2.87;2.67;;;;;;;19.04;49.63;96517.41;5028088;28;20205;-25
2024/02/27 00:49:10;;;;;;;2.70;2.50;;;;;;;19.05;49.95;96536.09;5029240;28;20228;-25
2024/02/27 00:51:37;;;;;;;2.50;2.30;;;;;;;19.04;49.76;96540.31;5027436;28;20230;-26
2024/02/27 00:54:04;;;;;;;2.77;2.57;;;;;;;19.04;49.82;96554.75;5032922;28;20202;-25
2024/02/27 00:56:30;;;;;;;2.87;2.67;;;;;;;19.03;49.92;96558.97;5030826;28;20201;-25
2024/02/27 00:58:57;;;;;;;2.67;2.47;;;;;;;19.01;49.82;96554.69;5021977;28;20194;-25
2024/02/27 01:01:23;;;;;;;2.60;2.40;;;;;;;19.01;50.31;96560.63;5029240;28;20205;-25
2024/02/27 01:03:50;;;;;;;2.33;2.13;;;;;;;19.02;49.91;96562.38;5029111;28;20206;-26
2024/02/27 01:06:17;;;;;;;2.70;2.50;;;;;;;18.96;49.96;96551.16;5020740;28;20246;-25
2024/02/27 01:08:44;;;;;;;2.83;2.63;;;;;;;19.02;49.97;96564.03;5028134;28;20554;-27
2024/02/27 01:11:10;;;;;;;2.63;2.43;;;;;;;19.03;49.96;96558.97;5030838;28;20218;-26
2024/02/27 01:13:38;;;;;;;2.77;2.57;;;;;;;19.01;49.83;96552.97;5029332;28;20206;-28
2024/02/27 01:16:05;;;;;;;2.83;2.63;;;;;;;18.98;49.75;96552.91;5029280;28;20208;-25
2024/02/27 01:18:31;;;;;;;3.40;3.10;;;;;;;19.02;49.75;96561.50;5032516;28;20251;-25
2024/02/27 01:21:00;;;;;;;2.77;2.57;;;;;;;19.00;49.89;96546.19;5026216;28;20226;-25
2024/02/27 01:23:27;;;;;;;2.80;2.60;;;;;;;19.00;50.06;96535.13;5022975;28;20201;-25
2024/02/27 01:25:54;;;;;;;2.87;2.67;;;;;;;18.99;49.93;96536.84;5026641;28;20202;-26
2024/02/27 01:28:21;;;;;;;2.60;2.37;;;;;;;18.99;49.96;96516.47;5031488;28;20348;-25
2024/02/27 01:30:47;;;;;;;2.93;2.73;;;;;;;18.99;50.00;96513.91;5027671;28;20213;-26
2024/02/27 01:33:14;;;;;;;2.70;2.50;;;;;;;18.99;49.96;96510.50;5031608;28;20689;-25
2024/02/27 01:35:41;;;;;;;2.67;2.47;;;;;;;18.98;49.86;96524.91;5032743;28;20644;-25
2024/02/27 01:38:08;;;;;;;2.70;2.50;;;;;;;18.99;50.54;96524.09;5032025;28;20726;-25
2024/02/27 01:40:35;;;;;;;2.87;2.67;;;;;;;18.98;49.85;96531.69;5031447;28;20221;-25
2024/02/27 01:43:01;;;;;;;2.80;2.60;;;;;;;18.98;49.89;96540.19;5032205;28;20212;-25
2024/02/27 01:45:28;;;;;;;2.73;2.53;;;;;;;18.99;50.39;96538.50;5028903;28;20588;-25
2024/02/27 01:47:55;;;;;;;2.83;2.63;;;;;;;18.99;49.67;96541.06;5027780;28;20197;-25
2024/02/27 01:50:23;;;;;;;2.90;2.70;;;;;;;18.99;49.88;96535.97;5032236;28;20253;-27
2024/02/27 01:52:51;;;;;;;2.70;2.50;;;;;;;19.00;49.88;96537.66;5028116;28;20620;-25
2024/02/27 01:55:17;;;;;;;2.67;2.47;;;;;;;18.98;50.00;96532.53;5031331;28;20728;-25
2024/02/27 01:57:44;;;;;;;2.97;2.77;;;;;;;18.96;50.09;96534.22;5029988;28;20244;-25
2024/02/27 02:00:14;;;;;;;2.77;2.57;;;;;;;18.95;49.93;96526.53;5028526;28;20221;-27
2024/02/27 02:02:44;;;;;;;2.77;2.57;;;;;;;18.97;49.95;96532.50;5025274;28;20208;-27
2024/02/27 02:05:11;;;;;;;2.73;2.53;;;;;;;18.97;49.92;96535.06;5021776;28;20265;-33
2024/02/27 02:07:39;;;;;;;3.00;2.80;;;;;;;18.96;50.10;96524.03;5031286;28;20201;-26
2024/02/27 02:10:11;;;;;;;3.20;2.90;;;;;;;18.97;50.04;96524.88;5030249;28;20312;-25
2024/02/27 02:12:37;;;;;;;2.70;2.50;;;;;;;18.95;50.01;96521.44;5031413;28;20220;-26
2024/02/27 02:15:05;;;;;;;3.13;2.83;;;;;;;18.95;49.99;96517.19;5031534;28;20208;-26
2024/02/27 02:17:33;;;;;;;2.67;2.47;;;;;;;18.95;49.86;96522.28;5031683;28;20201;-27
2024/02/27 02:20:00;;;;;;;3.20;2.90;;;;;;;18.96;49.75;96507.88;5031373;28;20378;-25
2024/02/27 02:22:27;;;;;;;2.57;2.37;;;;;;;18.94;50.03;96515.47;5031093;28;20660;-25
2024/02/27 02:24:53;;;;;;;2.70;2.50;;;;;;;18.96;50.27;96510.44;5030320;28;20237;-25
2024/02/27 02:27:23;;;;;;;2.90;2.70;;;;;;;18.95;50.10;96521.44;5031061;28;20580;-25
2024/02/27 02:29:51;;;;;;;2.90;2.70;;;;;;;18.96;49.96;96518.94;5031154;28;20228;-25
2024/02/27 02:32:17;;;;;;;3.07;2.77;;;;;;;18.97;49.60;96525.75;5031007;28;20204;-25
2024/02/27 02:34:44;;;;;;;2.93;2.63;;;;;;;18.96;49.87;96520.63;5021615;28;20225;-26
2024/02/27 02:37:11;;;;;;;3.20;2.93;;;;;;;18.96;49.92;96523.16;5021886;28;20205;-26
2024/02/27 02:39:37;;;;;;;3.00;2.70;;;;;;;18.96;49.94;96525.69;5029786;28;20214;-25
2024/02/27 02:42:04;;;;;;;3.50;3.20;;;;;;;18.95;49.96;96526.53;5031780;28;20201;-25
2024/02/27 02:44:32;;;;;;;3.50;3.20;;;;;;;18.95;50.14;96526.53;5029404;28;20801;-31
2024/02/27 02:46:59;;;;;;;3.30;3.00;;;;;;;18.95;50.05;96526.53;5030332;28;20197;-25
2024/02/27 02:49:26;;;;;;;3.30;3.00;;;;;;;18.96;50.02;96533.34;5030689;28;20257;-25
2024/02/27 02:51:53;;;;;;;2.93;2.73;;;;;;;18.96;49.71;96533.34;5031918;28;20284;-26
2024/02/27 02:54:19;;;;;;;3.30;3.00;;;;;;;18.95;50.16;96527.38;5030920;28;20205;-25
2024/02/27 02:56:46;;;;;;;3.43;3.13;;;;;;;18.88;49.82;96509.38;5031286;28;20651;-25
2024/02/27 02:59:13;;;;;;;2.90;2.70;;;;;;;18.94;50.05;96534.97;5027589;28;20260;-25
2024/02/27 03:01:39;;;;;;;3.20;2.90;;;;;;;18.94;49.99;96542.63;5030477;28;20230;-27
2024/02/27 03:04:06;;;;;;;3.43;3.13;;;;;;;18.95;50.10;96540.09;5026359;28;20206;-25
2024/02/27 03:06:32;;;;;;;3.10;2.80;;;;;;;18.95;49.65;96537.56;5028237;28;20205;-27
2024/02/27 03:08:59;;;;;;;3.27;2.97;;;;;;;18.95;50.04;96545.19;5029642;28;20847;-25
2024/02/27 03:11:26;;;;;;;3.33;3.10;;;;;;;18.91;49.88;96543.41;5031523;28;20206;-26
2024/02/27 03:13:52;;;;;;;3.43;3.13;;;;;;;18.96;49.89;96553.72;5032810;28;20202;-30
2024/02/27 03:16:19;;;;;;;3.50;3.20;;;;;;;18.96;50.14;96558.81;5033286;28;20211;-28
2024/02/27 03:18:46;;;;;;;3.90;3.50;;;;;;;18.95;49.98;96564.72;5032532;28;20209;-28
2024/02/27 03:21:13;;;;;;;3.63;3.33;;;;;;;18.95;49.88;96564.72;5034512;28;20206;-25
2024/02/27 03:23:40;;;;;;;3.33;3.03;;;;;;;18.92;50.17;96569.75;5033826;28;20676;-25
2024/02/27 03:26:06;;;;;;;3.37;3.07;;;;;;;18.94;49.76;96579.13;5028197;28;20199;-25
2024/02/27 03:28:33;;;;;;;3.30;3.00;;;;;;;18.93;49.98;96577.41;5032989;28;20260;-25
2024/02/27 03:31:00;;;;;;;3.50;3.20;;;;;;;18.94;50.28;96580.81;5034113;28;20221;-25
2024/02/27 03:33:26;;;;;;;3.50;3.20;;;;;;;18.94;50.08;96583.34;5034491;28;20712;-25
2024/02/27 03:35:53;;;;;;;3.30;3.00;;;;;;;18.94;50.22;96581.69;5034793;28;20208;-25
2024/02/27 03:38:19;;;;;;;3.47;3.10;;;;;;;18.95;50.13;96580.00;5034138;28;20233;-25
2024/02/27 03:40:46;;;;;;;3.33;3.03;;;;;;;18.95;50.23;96587.63;5032673;28;20542;-25
2024/02/27 03:43:12;;;;;;;3.10;2.90;;;;;;;18.94;50.29;96588.44;5032556;28;20198;-27
2024/02/27 03:45:39;;;;;;;3.30;3.00;;;;;;;18.94;50.13;96594.41;5033992;28;20579;-25
2024/02/27 03:48:06;;;;;;;3.60;3.30;;;;;;;18.93;49.96;96586.72;5027751;28;20206;-25
2024/02/27 03:50:33;;;;;;;3.50;3.20;;;;;;;18.95;50.02;96592.72;5026770;28;20225;-25
2024/02/27 03:53:00;;;;;;;3.60;3.30;;;;;;;18.95;49.71;96587.63;5032694;28;20202;-25
2024/02/27 03:55:26;;;;;;;3.57;3.27;;;;;;;18.95;49.78;96593.56;5032883;28;20206;-25
2024/02/27 03:57:53;;;;;;;3.37;3.07;;;;;;;18.93;49.76;96584.19;5026335;28;20194;-25
2024/02/27 04:00:20;;;;;;;3.60;3.30;;;;;;;18.95;49.98;96602.91;5030890;28;20222;-26
2024/02/27 04:02:46;;;;;;;3.97;3.40;;;;;;;18.95;50.07;96605.47;5033664;28;20247;-25
2024/02/27 04:05:13;;;;;;;3.47;3.17;;;;;;;18.93;49.81;96597.78;5034136;28;20578;-26
2024/02/27 04:07:40;;;;;;;3.80;3.50;;;;;;;18.90;50.03;96597.72;5031924;28;20202;-27
2024/02/27 04:10:07;;;;;;;3.60;3.30;;;;;;;18.93;50.05;96602.00;5033145;28;20308;-25
2024/02/27 04:12:33;;;;;;;3.50;3.20;;;;;;;18.93;50.05;96596.91;5032827;28;20206;-25
2024/02/27 04:15:01;;;;;;;4.07;3.77;;;;;;;18.91;49.81;96591.78;5031148;28;20251;-25
2024/02/27 04:17:28;;;;;;;3.50;3.20;;;;;;;18.93;50.23;96591.81;5033617;28;20198;-25
2024/02/27 04:19:57;;;;;;;3.33;3.03;;;;;;;18.92;49.73;96587.56;5033373;28;20226;-26
2024/02/27 04:22:24;;;;;;;3.30;3.00;;;;;;;18.93;50.23;96596.91;5034120;28;20205;-25
2024/02/27 04:24:50;;;;;;;3.70;3.33;;;;;;;18.93;49.76;96592.69;5030715;28;20206;-27
2024/02/27 04:27:18;;;;;;;3.40;3.10;;;;;;;18.93;50.08;96604.56;5033104;28;20676;-25
2024/02/27 04:29:45;;;;;;;3.70;3.40;;;;;;;18.93;50.11;96602.88;5028794;28;20245;-26
2024/02/27 04:32:13;;;;;;;3.70;3.40;;;;;;;18.93;49.86;96605.41;5030894;28;20289;-25
2024/02/27 04:34:41;;;;;;;3.53;3.23;;;;;;;18.95;50.02;96611.38;5029615;28;20617;-25
2024/02/27 04:37:08;;;;;;;4.07;3.67;;;;;;;18.94;49.85;96616.44;5033150;28;20610;-25
2024/02/27 04:39:35;;;;;;;3.77;3.47;;;;;;;18.94;49.91;96614.78;5032159;28;20300;-27
2024/02/27 04:42:02;;;;;;;3.80;3.50;;;;;;;18.92;49.95;96602.84;5033298;28;20593;-25
2024/02/27 04:44:29;;;;;;;4.00;3.60;;;;;;;18.96;50.05;96618.22;5032657;28;20202;-25
2024/02/27 04:46:55;;;;;;;4.00;3.70;;;;;;;18.97;50.01;96630.13;5032660;28;20672;-28
2024/02/27 04:49:22;;;;;;;3.17;2.97;;;;;;;18.98;50.18;96628.44;5033354;28;20230;-25
2024/02/27 04:51:49;;;;;;;3.90;3.60;;;;;;;18.97;50.15;96632.66;5032081;28;20193;-25
2024/02/27 04:54:17;;;;;;;3.50;3.20;;;;;;;18.99;50.37;96631.03;5030909;28;20277;-25
2024/02/27 04:56:43;;;;;;;4.00;3.70;;;;;;;18.96;50.05;96620.78;5023459;28;20289;-25
2024/02/27 04:59:10;;;;;;;4.07;3.67;;;;;;;18.98;50.25;96623.34;5031314;28;20213;-25
2024/02/27 05:01:37;;;;;;;4.03;3.67;;;;;;;18.98;50.33;96626.75;5032653;28;20585;-25
2024/02/27 05:04:04;;;;;;;3.80;3.50;;;;;;;18.99;50.26;96635.25;5026127;28;20202;-25
2024/02/27 05:06:30;;;;;;;3.80;3.50;;;;;;;18.98;50.11;96629.28;5031999;28;20216;-27
2024/02/27 05:08:57;;;;;;;4.00;3.70;;;;;;;19.00;50.25;96634.41;5031125;28;20237;-25
2024/02/27 05:11:23;;;;;;;3.83;3.53;;;;;;;19.00;50.20;96637.84;5031185;28;20198;-25
2024/02/27 05:13:50;;;;;;;3.70;3.40;;;;;;;19.01;49.90;96644.66;5026918;28;20289;-26
2024/02/27 05:16:17;;;;;;;4.43;3.40;;;;;;;19.01;50.68;96651.44;5030816;28;20205;-26
2024/02/27 05:18:43;;;;;;;4.10;3.70;;;;;;;19.00;50.11;96659.88;5028366;28;20564;-25
2024/02/27 05:21:10;;;;;;;5.17;4.50;;;;;;;18.99;50.03;96650.53;5029673;28;20579;-25
2024/02/27 05:23:37;;;;;;;4.30;3.90;;;;;;;19.00;49.90;96655.66;5023123;28;20340;-28
2024/02/27 05:26:04;;;;;;;4.27;3.87;;;;;;;18.99;49.34;96656.50;5025325;28;20205;-25
2024/02/27 05:28:30;;;;;;;4.30;3.90;;;;;;;18.98;49.76;96647.13;5032524;28;20198;-25
2024/02/27 05:30:57;;;;;;;4.10;3.70;;;;;;;18.99;49.91;96653.94;5031275;28;21212;-25
2024/02/27 05:33:24;;;;;;;4.27;3.87;;;;;;;19.00;49.94;96649.69;5031714;28;20276;-25
2024/02/27 05:35:51;;;;;;;3.67;3.37;;;;;;;18.96;50.10;96643.69;5025779;28;20197;-25
2024/02/27 05:38:18;;;;;;;3.73;3.40;;;;;;;18.99;49.66;96648.00;5030671;28;20204;-26
2024/02/27 05:40:44;;;;;;;3.90;3.60;;;;;;;18.98;49.87;96651.38;5031155;28;20264;-25
2024/02/27 05:43:11;;;;;;;3.87;3.53;;;;;;;18.99;50.34;96658.16;5030320;28;20193;-25
2024/02/27 05:45:37;;;;;;;4.50;4.10;;;;;;;19.00;49.77;96664.97;5022682;28;20285;-27
2024/02/27 05:48:04;;;;;;;4.53;4.13;;;;;;;19.00;49.84;96667.53;5025921;28;20197;-26
2024/02/27 05:50:31;;;;;;;6.60;5.53;;;;;;;18.99;49.06;96674.31;5032153;28;20253;-25
2024/02/27 05:52:57;;;;;;;8.03;6.47;;;;;;;18.99;48.79;96671.78;5031931;28;20256;-25
2024/02/27 05:55:24;;;;;;;7.83;7.03;;;;;;;19.00;47.97;96672.63;5031071;28;20579;-26
2024/02/27 05:57:50;;;;;;;13.63;10.30;;;;;;;19.00;46.44;96677.69;5028813;28;20225;-25
2024/02/27 06:00:17;;;;;;;16.67;10.87;;;;;;;18.99;46.05;96678.53;5031144;28;20245;-25
2024/02/27 06:02:44;;;;;;;12.00;9.90;;;;;;;18.85;46.69;96659.50;5031610;28;20202;-25
2024/02/27 06:05:11;;;;;;;13.50;9.93;;;;;;;18.97;47.16;96686.13;5030693;28;20669;-27
2024/02/27 06:07:38;;;;;;;14.10;11.73;;;;;;;18.96;46.19;96684.44;5031152;28;20201;-25
2024/02/27 06:10:05;;;;;;;14.93;12.13;;;;;;;18.96;45.50;96684.44;5031191;28;20222;-25
2024/02/27 06:12:31;;;;;;;19.70;12.77;;;;;;;18.95;46.21;96692.88;5031757;28;20202;-25
2024/02/27 06:14:58;;;;;;;17.47;14.37;;;;;;;18.93;44.80;96691.97;5032071;28;20641;-25
2024/02/27 06:17:25;;;;;;;20.10;14.63;;;;;;;18.94;44.28;96698.78;5031036;28;20213;-25
2024/02/27 06:19:55;;;;;;;17.27;14.93;;;;;;;18.93;44.22;96698.75;5031026;28;20632;-25
2024/02/27 06:22:23;;;;;;;15.10;13.27;;;;;;;18.93;45.28;96701.28;5031821;28;20273;-25
2024/02/27 06:24:50;;;;;;;16.90;13.53;;;;;;;18.91;46.16;96706.34;5030210;28;20580;-25
2024/02/27 06:27:17;;;;;;;14.23;12.63;;;;;;;18.92;46.32;96712.31;5030967;28;20630;-25
2024/02/27 06:29:43;;;;;;;16.97;12.67;;;;;;;18.83;47.25;96704.44;5026638;28;20600;-28
2024/02/27 06:32:10;;;;;;;14.27;11.60;;;;;;;18.91;47.36;96720.75;5030840;28;20197;-25
2024/02/27 06:34:38;;;;;;;16.20;12.43;;;;;;;18.90;47.63;96724.13;5026216;28;20210;-33
2024/02/27 06:37:05;;;;;;;14.20;11.67;;;;;;;18.91;47.26;96736.03;5029171;28;20205;-30
2024/02/27 06:39:32;;;;;;;14.87;11.60;;;;;;;18.90;48.31;96727.53;5031354;28;20256;-25
2024/02/27 06:41:59;;;;;;;11.93;10.57;;;;;;;18.91;47.77;96730.94;5029595;28;20197;-26
2024/02/27 06:44:26;;;;;;;13.50;10.83;;;;;;;18.91;47.66;96736.91;5024761;28;20202;-25
2024/02/27 06:46:52;;;;;;;13.33;10.80;;;;;;;18.90;47.99;96740.28;5030919;28;20248;-25
2024/02/27 06:49:19;;;;;;;11.10;9.90;;;;;;;18.90;47.87;96752.13;5031015;28;20225;-25
2024/02/27 06:51:49;;;;;;;11.20;9.77;;;;;;;18.89;48.21;96753.81;5025164;28;20202;-25
2024/02/27 06:54:16;;;;;;;12.00;10.73;;;;;;;18.90;47.83;96760.63;5027205;28;20206;-26
2024/02/27 06:56:43;;;;;;;13.60;11.07;;;;;;;18.88;47.85;96762.28;5029961;28;20201;-27
2024/02/27 06:59:09;;;;;;;11.63;10.23;;;;;;;18.89;48.06;96769.06;5030171;28;20228;-28
2024/02/27 07:01:36;;;;;;;11.27;10.07;;;;;;;18.89;47.04;96769.06;5026656;28;20206;-25
2024/02/27 07:04:03;;;;;;;17.13;13.17;;;;;;;18.86;44.58;96774.09;5031009;28;20635;-31
2024/02/27 07:06:30;;;;;;;18.10;14.50;;;;;;;18.83;44.82;96776.53;5030068;28;20209;-26
2024/02/27 07:08:58;;;;;;;16.73;13.60;;;;;;;18.83;44.72;96768.06;5029703;28;20228;-25
2024/02/27 07:11:26;;;;;;;15.37;13.13;;;;;;;18.82;45.71;96769.75;5031665;28;20260;-25
2024/02/27 07:13:53;;;;;;;16.53;12.90;;;;;;;18.82;46.45;96767.19;5027466;28;20206;-27
2024/02/27 07:16:20;;;;;;;14.40;12.87;;;;;;;18.82;46.62;96772.28;5030140;28;20209;-35
2024/02/27 07:18:48;;;;;;;17.00;12.43;;;;;;;18.84;46.60;96773.19;5028187;28;20214;-25
2024/02/27 07:21:15;;;;;;;13.07;11.60;;;;;;;18.82;47.13;96769.75;5028747;28;20244;-25
2024/02/27 07:23:45;;;;;;;13.27;11.67;;;;;;;18.82;47.05;96764.66;5031458;28;20237;-27
2024/02/27 07:26:12;;;;;;;15.27;11.93;;;;;;;18.84;47.28;96768.09;5030266;28;20206;-27
2024/02/27 07:28:38;;;;;;;14.80;11.57;;;;;;;18.85;47.76;96774.03;5030360;28;20209;-26
2024/02/27 07:31:05;;;;;;;14.10;11.30;;;;;;;18.84;47.64;96770.66;5027612;28;20226;-25
2024/02/27 07:33:32;;;;;;;13.90;11.60;;;;;;;18.85;47.99;96774.91;5022719;28;20583;-27
2024/02/27 07:35:58;;;;;;;13.23;11.33;;;;;;;18.85;47.75;96774.03;5029707;28;20210;-27
2024/02/27 07:38:25;;;;;;;15.07;11.13;;;;;;;18.87;47.97;96773.28;5031045;28;20202;-27
2024/02/27 07:40:51;;;;;;;12.63;10.60;;;;;;;18.87;48.12;96767.31;5020809;28;20767;-26
2024/02/27 07:43:18;;;;;;;13.27;10.80;;;;;;;18.87;48.24;96772.41;5026646;28;20221;-28
2024/02/27 07:45:47;;;;;;;11.20;10.00;;;;;;;18.86;47.75;96769.00;5029515;28;20215;-30
2024/02/27 07:48:13;;;;;;;15.27;10.30;;;;;;;18.89;48.34;96769.06;5030073;28;20201;-27
2024/02/27 07:50:40;;;;;;;12.10;10.07;;;;;;;18.90;48.15;96775.03;5019851;28;20693;-26
2024/02/27 07:53:07;;;;;;;12.50;10.53;;;;;;;18.89;48.15;96774.16;5029841;28;20202;-30
2024/02/27 07:55:33;;;;;;;11.30;10.10;;;;;;;18.89;48.17;96775.88;5030695;28;20240;-28
2024/02/27 07:58:00;;;;;;;11.50;9.57;;;;;;;18.90;48.31;96781.00;5027913;28;20259;-25
2024/02/27 08:00:26;;;;;;;11.23;9.37;;;;;;;18.89;48.30;96779.25;5023687;28;20655;-26
2024/02/27 08:02:53;;;;;;;15.50;9.67;;;;;;;18.89;48.35;96763.97;5030014;28;20668;-26
2024/02/27 08:05:22;;;;;;;11.63;9.43;;;;;;;18.87;48.61;96759.69;5026021;28;20634;-25
2024/02/27 08:07:48;;;;;;;10.67;8.90;;;;;;;18.89;48.37;96758.88;5026913;28;20221;-27
2024/02/27 08:10:15;;;;;;;10.97;9.40;;;;;;;18.88;48.93;96759.72;5029880;28;20292;-28
2024/02/27 08:12:42;;;;;;;10.90;9.80;;;;;;;18.83;48.72;96748.53;5030366;28;20657;-25
2024/02/27 08:15:08;;;;;;;10.10;8.87;;;;;;;18.90;48.63;96759.75;5030405;28;20307;-26
2024/02/27 08:17:35;;;;;;;10.07;8.83;;;;;;;18.88;48.68;96754.63;5029485;28;20225;-27
2024/02/27 08:20:03;;;;;;;11.43;9.10;;;;;;;18.89;48.79;96752.97;5028464;28;20282;-32
2024/02/27 08:22:31;;;;;;;9.67;8.37;;;;;;;18.90;48.74;96753.00;5029351;28;20668;-27
2024/02/27 08:24:58;;;;;;;11.33;9.23;;;;;;;18.90;48.73;96763.19;5029639;28;20209;-25
2024/02/27 08:27:24;;;;;;;9.60;8.60;;;;;;;18.90;48.60;96764.84;5030050;28;20209;-25
2024/02/27 08:29:51;;;;;;;12.60;8.40;;;;;;;18.89;48.64;96763.16;5026424;28;20229;-25
2024/02/27 08:32:19;;;;;;;10.00;8.43;;;;;;;18.89;48.97;96761.44;5029260;28;20247;-25
2024/02/27 08:34:46;;;;;;;11.63;8.93;;;;;;;18.90;48.87;96763.19;5028040;28;20208;-25
2024/02/27 08:37:13;;;;;;;9.07;7.87;;;;;;;18.90;48.84;96762.31;5022714;28;20680;-25
2024/02/27 08:39:39;;;;;;;9.63;8.57;;;;;;;18.90;48.85;96763.19;5029538;28;20295;-26
2024/02/27 08:42:06;;;;;;;9.17;8.23;;;;;;;18.90;48.86;96760.63;5029948;28;20205;-26
2024/02/27 08:44:33;;;;;;;10.17;8.10;;;;;;;18.91;48.82;96761.47;5029812;28;20248;-26
2024/02/27 08:47:02;;;;;;;9.53;7.60;;;;;;;18.93;48.97;96775.13;5027073;28;20213;-28
2024/02/27 08:49:29;;;;;;;9.37;8.20;;;;;;;18.91;48.92;96771.66;5028885;28;20615;-28
2024/02/27 08:51:55;;;;;;;9.13;7.80;;;;;;;18.93;48.75;96785.31;5029099;28;20218;-25
2024/02/27 08:54:22;;;;;;;8.80;7.90;;;;;;;18.93;48.94;96791.28;5029089;28;20201;-25
2024/02/27 08:56:49;;;;;;;8.57;7.70;;;;;;;18.93;49.01;96798.03;5027373;28;20680;-35
2024/02/27 08:59:15;;;;;;;8.87;7.97;;;;;;;18.86;48.99;96784.25;5026065;28;20651;-28
2024/02/27 09:01:42;;;;;;;8.67;7.47;;;;;;;18.91;48.47;96794.56;5029051;28;20228;-25
2024/02/27 09:04:08;;;;;;;8.57;7.67;;;;;;;18.94;49.07;96802.31;5029061;28;20217;-26
2024/02/27 09:06:42;;;;;;;8.23;7.27;;;;;;;18.89;48.66;96792.00;5028603;28;20206;-25
2024/02/27 09:09:09;;;;;;;8.57;7.67;;;;;;;18.93;49.32;96801.47;5026751;28;20263;-27
2024/02/27 09:11:35;;;;;;;7.80;7.00;;;;;;;18.93;49.25;96798.03;5025015;28;20214;-26
2024/02/27 09:14:02;;;;;;;7.93;7.13;;;;;;;18.90;49.35;96793.72;5021216;28;20202;-26
2024/02/27 09:16:29;;;;;;;7.60;6.87;;;;;;;18.92;49.16;96788.69;5025588;28;20197;-27
2024/02/27 09:18:55;;;;;;;8.30;7.27;;;;;;;18.92;49.10;96796.31;5029102;28;20194;-26
2024/02/27 09:21:23;;;;;;;8.30;7.20;;;;;;;18.91;48.96;96792.91;5028403;28;20194;-26
2024/02/27 09:23:51;;;;;;;8.20;7.40;;;;;;;18.91;49.00;96794.56;5027483;28;20201;-25
2024/02/27 09:26:17;;;;;;;7.80;7.00;;;;;;;18.89;49.57;96802.16;5024617;28;20790;-25
2024/02/27 09:28:44;;;;;;;7.33;6.63;;;;;;;18.91;49.07;96810.72;5025728;28;20293;-28
2024/02/27 09:31:11;;;;;;;8.13;7.33;;;;;;;18.91;48.66;96810.72;5028772;28;20714;-25
2024/02/27 09:33:49;;;;;;;9.97;8.93;;;;;;;18.89;47.86;96807.25;5018188;28;20198;-28
2024/02/27 09:36:16;;;;;;;9.10;8.20;;;;;;;18.90;47.94;96811.56;5018325;28;20198;-26
2024/02/27 09:38:43;;;;;;;8.97;7.90;;;;;;;18.90;48.33;96814.09;5028767;28;20208;-28
2024/02/27 09:41:35;;;;;;;10.20;8.53;;;;;;;18.88;48.52;96812.31;5027577;28;20217;-30
2024/02/27 09:44:01;;;;;;;8.90;8.00;;;;;;;18.90;48.79;96806.47;5020268;28;20225;-26
2024/02/27 09:46:28;;;;;;;8.80;7.93;;;;;;;18.85;48.79;96805.47;5026927;28;20220;-26
2024/02/27 09:48:55;;;;;;;8.03;7.17;;;;;;;18.90;48.85;96809.00;5005242;28;20296;-25
2024/02/27 09:51:22;;;;;;;8.00;7.20;;;;;;;18.90;48.86;96806.47;5022544;28;20291;-25
2024/02/27 09:53:49;;;;;;;8.07;7.27;;;;;;;18.88;49.01;96804.69;5008768;28;20240;-26
2024/02/27 09:56:16;;;;;;;7.73;6.93;;;;;;;18.90;48.94;96815.78;5008354;28;20233;-28
2024/02/27 09:58:43;;;;;;;8.13;7.33;;;;;;;18.90;48.91;96806.47;5022134;28;20233;-25
2024/02/27 10:01:15;;;;;;;8.17;7.23;;;;;;;18.91;49.15;96804.75;5020249;28;20245;-31
2024/02/27 10:03:44;;;;;;;8.50;7.60;;;;;;;18.90;49.03;96797.94;5029320;28;20215;-25
2024/02/27 10:06:12;;;;;;;7.73;6.90;;;;;;;18.90;49.03;96792.88;5028630;28;20624;-26
2024/02/27 10:08:40;;;;;;;7.70;6.90;;;;;;;18.90;49.01;96798.81;5025135;28;20711;-25
2024/02/27 10:11:06;;;;;;;7.17;6.47;;;;;;;18.86;49.29;96788.50;5022457;28;20296;-27
2024/02/27 10:13:33;;;;;;;7.53;6.83;;;;;;;18.90;49.12;96793.72;5004599;28;20201;-25
2024/02/27 10:16:00;;;;;;;7.67;6.90;;;;;;;18.90;49.28;96805.59;5022485;28;20206;-27
2024/02/27 10:18:26;;;;;;;7.50;6.70;;;;;;;18.90;49.28;96797.94;5025300;28;20305;-25
2024/02/27 10:20:53;;;;;;;6.90;6.20;;;;;;;18.89;49.06;96806.41;5025938;28;20275;-25
2024/02/27 10:23:19;;;;;;;7.20;6.50;;;;;;;18.90;48.78;96815.78;5025822;28;20233;-39
2024/02/27 10:25:46;;;;;;;7.67;6.87;;;;;;;18.91;49.20;96817.50;5024860;28;20197;-26
2024/02/27 10:28:13;;;;;;;6.93;6.33;;;;;;;18.92;49.19;96821.78;5024587;28;20226;-26
2024/02/27 10:30:39;;;;;;;7.40;6.70;;;;;;;18.94;48.86;96827.75;5027371;28;20217;-25
2024/02/27 10:33:11;;;;;;;6.60;5.90;;;;;;;18.92;48.23;96835.34;5028874;28;20197;-26
2024/02/27 10:35:38;;;;;;;8.37;6.50;;;;;;;18.93;48.53;96841.31;5021695;28;20209;-25
2024/02/27 10:38:15;;;;;;;7.63;6.47;;;;;;;18.92;48.66;96837.91;5028823;28;20209;-25
2024/02/27 10:40:42;;;;;;;7.17;6.47;;;;;;;18.93;48.66;96829.47;5029186;28;20227;-26
2024/02/27 10:43:08;;;;;;;9.17;6.60;;;;;;;18.93;48.83;96849.84;5028838;28;20436;-25
2024/02/27 10:45:37;;;;;;;6.80;6.00;;;;;;;18.93;49.30;96849.84;5021118;28;20205;-27
2024/02/27 10:48:04;;;;;;;6.97;6.27;;;;;;;18.94;49.16;96845.59;5028204;28;20206;-27
2024/02/27 10:50:30;;;;;;;7.90;5.57;;;;;;;18.93;49.14;96843.88;5028299;28;20299;-25
2024/02/27 10:52:57;;;;;;;6.90;6.20;;;;;;;18.95;49.12;96850.72;5011153;28;20214;-33
2024/02/27 10:55:24;;;;;;;9.63;5.80;;;;;;;18.97;49.52;96853.31;5026686;28;20318;-27
2024/02/27 10:57:50;;;;;;;8.67;6.40;;;;;;;18.97;49.37;96850.75;5027375;28;20271;-26
2024/02/27 11:00:17;;;;;;;7.03;6.20;;;;;;;18.98;49.36;96849.97;5026861;28;20592;-27
2024/02/27 11:02:46;;;;;;;6.77;6.07;;;;;;;18.97;49.09;96853.31;5025887;28;20593;-29
2024/02/27 11:05:13;;;;;;;7.47;6.53;;;;;;;18.95;49.26;96853.25;5022116;28;20206;-25
2024/02/27 11:07:40;;;;;;;8.47;6.40;;;;;;;18.86;49.51;96839.44;5022884;28;20780;-28
2024/02/27 11:10:07;;;;;;;8.77;5.87;;;;;;;18.95;49.35;96857.50;5010309;28;20221;-25
2024/02/27 11:12:33;;;;;;;7.23;5.70;;;;;;;18.94;49.18;96859.19;5024180;28;20796;-27
2024/02/27 11:15:03;;;;;;;6.60;5.83;;;;;;;18.95;49.49;96858.34;5026048;28;20627;-30
2024/02/27 11:17:37;;;;;;;7.30;6.60;;;;;;;18.87;49.37;96846.22;5026941;28;20210;-26
2024/02/27 11:20:06;;;;;;;6.63;5.70;;;;;;;18.92;49.34;96852.34;5022409;28;20708;-26
2024/02/27 11:22:33;;;;;;;8.53;5.70;;;;;;;18.93;49.94;96860.00;5026739;28;20201;-25
2024/02/27 11:24:59;;;;;;;6.87;5.77;;;;;;;18.88;49.58;96845.41;5025455;28;20829;-27
2024/02/27 11:27:26;;;;;;;6.30;5.70;;;;;;;18.91;49.60;96850.59;5009576;28;20302;-25